sensor_id;sensor_type;location;lat;lon;timestamp;P1;durP1;ratioP1;P2;durP2;ratioP2
13415;SDS011;6779;50.150;8.680;2022-07-24T00:00:35;5.37;;;3.00;;
13415;SDS011;6779;50.150;8.680;2022-07-24T00:03:01;3.47;;;2.63;;
13415;SDS011;6779;50.150;8.680;2022-07-24T00:05:28;3.47;;;2.90;;
13415;SDS011;6779;50.150;8.680;2022-07-24T00:07:54;3.57;;;2.83;;
13415;SDS011;6779;50.150;8.680;2022-07-24T00:10:19;3.20;;;2.90;;
13415;SDS011;6779;50.150;8.680;2022-07-24T00:12:45;3.10;;;2.80;;
13415;SDS011;6779;50.150;8.680;2022-07-24T00:15:11;3.40;;;2.93;;
13415;SDS011;6779;50.150;8.680;2022-07-24T00:17:36;4.00;;;3.17;;
13415;SDS011;6779;50.150;8.680;2022-07-24T00:20:03;5.33;;;3.00;;
13415;SDS011;6779;50.150;8.680;2022-07-24T00:22:30;3.23;;;2.90;;
13415;SDS011;6779;50.150;8.680;2022-07-24T00:24:55;4.00;;;2.60;;
13415;SDS011;6779;50.150;8.680;2022-07-24T00:27:21;3.97;;;2.77;;
13415;SDS011;6779;50.150;8.680;2022-07-24T00:29:46;4.80;;;3.00;;
13415;SDS011;6779;50.150;8.680;2022-07-24T00:32:12;2.90;;;2.63;;
13415;SDS011;6779;50.150;8.680;2022-07-24T00:34:38;3.30;;;2.60;;
13415;SDS011;6779;50.150;8.680;2022-07-24T00:37:03;3.40;;;3.10;;
13415;SDS011;6779;50.150;8.680;2022-07-24T00:39:29;5.13;;;3.27;;
13415;SDS011;6779;50.150;8.680;2022-07-24T00:41:55;3.77;;;2.90;;
13415;SDS011;6779;50.150;8.680;2022-07-24T00:44:21;3.53;;;3.20;;
13415;SDS011;6779;50.150;8.680;2022-07-24T00:46:47;3.40;;;3.00;;
13415;SDS011;6779;50.150;8.680;2022-07-24T00:49:13;4.63;;;2.90;;
13415;SDS011;6779;50.150;8.680;2022-07-24T00:51:41;3.97;;;2.93;;
13415;SDS011;6779;50.150;8.680;2022-07-24T00:54:09;3.77;;;3.03;;
13415;SDS011;6779;50.150;8.680;2022-07-24T00:56:36;3.17;;;2.87;;
13415;SDS011;6779;50.150;8.680;2022-07-24T00:59:03;4.30;;;3.33;;
13415;SDS011;6779;50.150;8.680;2022-07-24T01:01:29;4.07;;;2.80;;
13415;SDS011;6779;50.150;8.680;2022-07-24T01:03:56;5.17;;;3.10;;
13415;SDS011;6779;50.150;8.680;2022-07-24T01:06:22;3.13;;;2.77;;
13415;SDS011;6779;50.150;8.680;2022-07-24T01:08:48;3.13;;;2.50;;
13415;SDS011;6779;50.150;8.680;2022-07-24T01:11:14;2.80;;;2.60;;
13415;SDS011;6779;50.150;8.680;2022-07-24T01:13:40;4.53;;;2.47;;
13415;SDS011;6779;50.150;8.680;2022-07-24T01:16:09;2.90;;;2.60;;
13415;SDS011;6779;50.150;8.680;2022-07-24T01:18:35;5.67;;;3.00;;
13415;SDS011;6779;50.150;8.680;2022-07-24T01:21:02;2.80;;;2.60;;
13415;SDS011;6779;50.150;8.680;2022-07-24T01:23:28;3.23;;;2.93;;
13415;SDS011;6779;50.150;8.680;2022-07-24T01:25:54;3.37;;;2.77;;
13415;SDS011;6779;50.150;8.680;2022-07-24T01:28:19;5.07;;;3.00;;
13415;SDS011;6779;50.150;8.680;2022-07-24T01:30:45;3.30;;;3.00;;
13415;SDS011;6779;50.150;8.680;2022-07-24T01:33:11;3.00;;;2.60;;
13415;SDS011;6779;50.150;8.680;2022-07-24T01:35:37;3.40;;;2.73;;
13415;SDS011;6779;50.150;8.680;2022-07-24T01:38:03;2.97;;;2.63;;
13415;SDS011;6779;50.150;8.680;2022-07-24T01:40:28;3.83;;;2.87;;
13415;SDS011;6779;50.150;8.680;2022-07-24T01:42:54;4.37;;;3.00;;
13415;SDS011;6779;50.150;8.680;2022-07-24T01:45:20;3.07;;;2.77;;
13415;SDS011;6779;50.150;8.680;2022-07-24T01:47:46;3.37;;;2.70;;
13415;SDS011;6779;50.150;8.680;2022-07-24T01:50:12;3.63;;;3.13;;
13415;SDS011;6779;50.150;8.680;2022-07-24T01:52:38;4.27;;;3.33;;
13415;SDS011;6779;50.150;8.680;2022-07-24T01:55:04;4.43;;;2.90;;
13415;SDS011;6779;50.150;8.680;2022-07-24T01:57:31;5.77;;;2.97;;
13415;SDS011;6779;50.150;8.680;2022-07-24T01:59:58;4.77;;;3.20;;
13415;SDS011;6779;50.150;8.680;2022-07-24T02:02:24;3.03;;;2.70;;
13415;SDS011;6779;50.150;8.680;2022-07-24T02:04:51;3.50;;;3.20;;
13415;SDS011;6779;50.150;8.680;2022-07-24T02:07:16;5.90;;;3.20;;
13415;SDS011;6779;50.150;8.680;2022-07-24T02:09:42;4.07;;;2.73;;
13415;SDS011;6779;50.150;8.680;2022-07-24T02:12:08;4.77;;;2.90;;
13415;SDS011;6779;50.150;8.680;2022-07-24T02:14:33;3.23;;;2.87;;
13415;SDS011;6779;50.150;8.680;2022-07-24T02:16:59;3.17;;;2.83;;
13415;SDS011;6779;50.150;8.680;2022-07-24T02:19:25;4.33;;;3.10;;
13415;SDS011;6779;50.150;8.680;2022-07-24T02:21:50;4.17;;;3.40;;
13415;SDS011;6779;50.150;8.680;2022-07-24T02:24:16;3.60;;;2.63;;
13415;SDS011;6779;50.150;8.680;2022-07-24T02:26:42;4.87;;;3.10;;
13415;SDS011;6779;50.150;8.680;2022-07-24T02:29:07;3.17;;;2.80;;
13415;SDS011;6779;50.150;8.680;2022-07-24T02:31:33;3.30;;;2.73;;
13415;SDS011;6779;50.150;8.680;2022-07-24T02:33:59;5.00;;;3.27;;
13415;SDS011;6779;50.150;8.680;2022-07-24T02:36:25;3.50;;;3.20;;
13415;SDS011;6779;50.150;8.680;2022-07-24T02:38:51;3.27;;;2.90;;
13415;SDS011;6779;50.150;8.680;2022-07-24T02:41:17;3.87;;;2.70;;
13415;SDS011;6779;50.150;8.680;2022-07-24T02:43:43;4.07;;;3.20;;
13415;SDS011;6779;50.150;8.680;2022-07-24T02:46:09;4.70;;;2.90;;
13415;SDS011;6779;50.150;8.680;2022-07-24T02:48:34;4.27;;;3.87;;
13415;SDS011;6779;50.150;8.680;2022-07-24T02:51:00;5.17;;;3.27;;
13415;SDS011;6779;50.150;8.680;2022-07-24T02:53:25;3.00;;;2.70;;
13415;SDS011;6779;50.150;8.680;2022-07-24T02:55:51;4.37;;;3.13;;
13415;SDS011;6779;50.150;8.680;2022-07-24T02:58:17;4.40;;;3.43;;
13415;SDS011;6779;50.150;8.680;2022-07-24T03:00:42;5.40;;;3.10;;
13415;SDS011;6779;50.150;8.680;2022-07-24T03:03:08;3.00;;;2.63;;
13415;SDS011;6779;50.150;8.680;2022-07-24T03:05:33;3.40;;;3.10;;
13415;SDS011;6779;50.150;8.680;2022-07-24T03:07:59;4.00;;;3.30;;
13415;SDS011;6779;50.150;8.680;2022-07-24T03:10:25;3.17;;;2.83;;
13415;SDS011;6779;50.150;8.680;2022-07-24T03:12:50;4.97;;;3.17;;
13415;SDS011;6779;50.150;8.680;2022-07-24T03:15:16;4.83;;;2.77;;
13415;SDS011;6779;50.150;8.680;2022-07-24T03:17:48;3.67;;;3.20;;
13415;SDS011;6779;50.150;8.680;2022-07-24T03:20:15;3.83;;;3.27;;
13415;SDS011;6779;50.150;8.680;2022-07-24T03:22:41;4.00;;;2.90;;
13415;SDS011;6779;50.150;8.680;2022-07-24T03:25:06;4.03;;;3.00;;
13415;SDS011;6779;50.150;8.680;2022-07-24T03:27:32;4.57;;;3.53;;
13415;SDS011;6779;50.150;8.680;2022-07-24T03:29:57;3.73;;;3.10;;
13415;SDS011;6779;50.150;8.680;2022-07-24T03:32:23;3.43;;;3.13;;
13415;SDS011;6779;50.150;8.680;2022-07-24T03:34:49;5.70;;;3.57;;
13415;SDS011;6779;50.150;8.680;2022-07-24T03:37:14;4.43;;;3.30;;
13415;SDS011;6779;50.150;8.680;2022-07-24T03:39:40;4.23;;;3.10;;
13415;SDS011;6779;50.150;8.680;2022-07-24T03:42:05;3.57;;;3.03;;
13415;SDS011;6779;50.150;8.680;2022-07-24T03:44:31;3.70;;;3.00;;
13415;SDS011;6779;50.150;8.680;2022-07-24T03:46:56;3.60;;;3.30;;
13415;SDS011;6779;50.150;8.680;2022-07-24T03:49:22;5.47;;;3.27;;
13415;SDS011;6779;50.150;8.680;2022-07-24T03:51:48;3.30;;;2.90;;
13415;SDS011;6779;50.150;8.680;2022-07-24T03:54:13;3.33;;;2.73;;
13415;SDS011;6779;50.150;8.680;2022-07-24T03:56:39;3.57;;;3.17;;
13415;SDS011;6779;50.150;8.680;2022-07-24T03:59:05;4.57;;;3.20;;
13415;SDS011;6779;50.150;8.680;2022-07-24T04:01:30;4.43;;;3.40;;
13415;SDS011;6779;50.150;8.680;2022-07-24T04:03:56;3.40;;;3.10;;
13415;SDS011;6779;50.150;8.680;2022-07-24T04:06:23;5.20;;;3.40;;
13415;SDS011;6779;50.150;8.680;2022-07-24T04:08:48;4.70;;;3.43;;
13415;SDS011;6779;50.150;8.680;2022-07-24T04:11:14;3.33;;;3.00;;
13415;SDS011;6779;50.150;8.680;2022-07-24T04:13:39;4.23;;;3.00;;
13415;SDS011;6779;50.150;8.680;2022-07-24T04:16:05;4.10;;;3.50;;
13415;SDS011;6779;50.150;8.680;2022-07-24T04:18:31;6.43;;;3.40;;
13415;SDS011;6779;50.150;8.680;2022-07-24T04:20:56;5.90;;;3.43;;
13415;SDS011;6779;50.150;8.680;2022-07-24T04:23:22;4.57;;;3.63;;
13415;SDS011;6779;50.150;8.680;2022-07-24T04:25:48;7.00;;;3.13;;
13415;SDS011;6779;50.150;8.680;2022-07-24T04:28:13;4.10;;;3.43;;
13415;SDS011;6779;50.150;8.680;2022-07-24T04:30:39;5.07;;;3.87;;
13415;SDS011;6779;50.150;8.680;2022-07-24T04:33:04;6.83;;;2.93;;
13415;SDS011;6779;50.150;8.680;2022-07-24T04:35:30;4.77;;;3.23;;
13415;SDS011;6779;50.150;8.680;2022-07-24T04:37:56;5.33;;;3.33;;
13415;SDS011;6779;50.150;8.680;2022-07-24T04:40:21;4.77;;;3.17;;
13415;SDS011;6779;50.150;8.680;2022-07-24T04:42:47;3.40;;;2.60;;
13415;SDS011;6779;50.150;8.680;2022-07-24T04:45:13;5.57;;;2.77;;
13415;SDS011;6779;50.150;8.680;2022-07-24T04:47:38;5.03;;;2.97;;
13415;SDS011;6779;50.150;8.680;2022-07-24T04:50:04;3.63;;;2.80;;
13415;SDS011;6779;50.150;8.680;2022-07-24T04:52:31;3.97;;;2.93;;
13415;SDS011;6779;50.150;8.680;2022-07-24T04:54:56;4.10;;;3.53;;
13415;SDS011;6779;50.150;8.680;2022-07-24T04:57:22;3.90;;;2.83;;
13415;SDS011;6779;50.150;8.680;2022-07-24T04:59:48;4.23;;;2.87;;
13415;SDS011;6779;50.150;8.680;2022-07-24T05:02:13;3.37;;;2.70;;
13415;SDS011;6779;50.150;8.680;2022-07-24T05:04:39;3.30;;;2.70;;
13415;SDS011;6779;50.150;8.680;2022-07-24T05:07:05;2.87;;;2.50;;
13415;SDS011;6779;50.150;8.680;2022-07-24T05:09:30;3.53;;;3.23;;
13415;SDS011;6779;50.150;8.680;2022-07-24T05:11:56;4.20;;;2.97;;
13415;SDS011;6779;50.150;8.680;2022-07-24T05:14:22;3.43;;;2.67;;
13415;SDS011;6779;50.150;8.680;2022-07-24T05:16:47;2.90;;;2.60;;
13415;SDS011;6779;50.150;8.680;2022-07-24T05:19:13;3.20;;;2.90;;
13415;SDS011;6779;50.150;8.680;2022-07-24T05:21:39;5.50;;;3.10;;
13415;SDS011;6779;50.150;8.680;2022-07-24T05:24:04;3.83;;;2.70;;
13415;SDS011;6779;50.150;8.680;2022-07-24T05:26:30;4.30;;;2.57;;
13415;SDS011;6779;50.150;8.680;2022-07-24T05:28:57;3.90;;;3.03;;
13415;SDS011;6779;50.150;8.680;2022-07-24T05:31:24;3.77;;;2.97;;
13415;SDS011;6779;50.150;8.680;2022-07-24T05:33:50;3.33;;;3.00;;
13415;SDS011;6779;50.150;8.680;2022-07-24T05:36:16;4.43;;;3.10;;
13415;SDS011;6779;50.150;8.680;2022-07-24T05:38:41;3.37;;;2.80;;
13415;SDS011;6779;50.150;8.680;2022-07-24T05:41:08;4.23;;;3.30;;
13415;SDS011;6779;50.150;8.680;2022-07-24T05:43:35;3.53;;;3.23;;
13415;SDS011;6779;50.150;8.680;2022-07-24T05:46:00;4.13;;;3.13;;
13415;SDS011;6779;50.150;8.680;2022-07-24T05:48:26;3.37;;;2.90;;
13415;SDS011;6779;50.150;8.680;2022-07-24T05:50:51;3.50;;;2.70;;
13415;SDS011;6779;50.150;8.680;2022-07-24T05:53:17;4.33;;;2.90;;
13415;SDS011;6779;50.150;8.680;2022-07-24T05:55:43;3.93;;;3.10;;
13415;SDS011;6779;50.150;8.680;2022-07-24T05:58:08;3.43;;;2.63;;
13415;SDS011;6779;50.150;8.680;2022-07-24T06:00:34;3.10;;;2.80;;
13415;SDS011;6779;50.150;8.680;2022-07-24T06:02:59;4.20;;;2.93;;
13415;SDS011;6779;50.150;8.680;2022-07-24T06:05:25;4.73;;;2.63;;
13415;SDS011;6779;50.150;8.680;2022-07-24T06:07:50;3.07;;;2.57;;
13415;SDS011;6779;50.150;8.680;2022-07-24T06:10:16;3.37;;;2.97;;
13415;SDS011;6779;50.150;8.680;2022-07-24T06:12:42;3.90;;;2.90;;
13415;SDS011;6779;50.150;8.680;2022-07-24T06:15:08;3.87;;;2.80;;
13415;SDS011;6779;50.150;8.680;2022-07-24T06:17:33;3.50;;;3.20;;
13415;SDS011;6779;50.150;8.680;2022-07-24T06:19:59;2.80;;;2.50;;
13415;SDS011;6779;50.150;8.680;2022-07-24T06:22:24;3.10;;;2.73;;
13415;SDS011;6779;50.150;8.680;2022-07-24T06:24:50;3.87;;;2.83;;
13415;SDS011;6779;50.150;8.680;2022-07-24T06:27:16;3.23;;;2.87;;
13415;SDS011;6779;50.150;8.680;2022-07-24T06:29:41;3.00;;;2.67;;
13415;SDS011;6779;50.150;8.680;2022-07-24T06:32:07;2.80;;;2.50;;
13415;SDS011;6779;50.150;8.680;2022-07-24T06:34:33;3.73;;;2.80;;
13415;SDS011;6779;50.150;8.680;2022-07-24T06:36:58;2.30;;;2.10;;
13415;SDS011;6779;50.150;8.680;2022-07-24T06:39:24;2.77;;;2.23;;
13415;SDS011;6779;50.150;8.680;2022-07-24T06:41:49;2.60;;;2.40;;
13415;SDS011;6779;50.150;8.680;2022-07-24T06:44:15;3.67;;;2.37;;
13415;SDS011;6779;50.150;8.680;2022-07-24T06:46:41;5.43;;;2.50;;
13415;SDS011;6779;50.150;8.680;2022-07-24T06:49:06;2.87;;;2.40;;
13415;SDS011;6779;50.150;8.680;2022-07-24T06:51:32;2.87;;;2.57;;
13415;SDS011;6779;50.150;8.680;2022-07-24T06:53:57;3.83;;;2.33;;
13415;SDS011;6779;50.150;8.680;2022-07-24T06:56:23;3.13;;;2.60;;
13415;SDS011;6779;50.150;8.680;2022-07-24T06:58:48;5.13;;;2.70;;
13415;SDS011;6779;50.150;8.680;2022-07-24T07:01:14;2.30;;;2.03;;
13415;SDS011;6779;50.150;8.680;2022-07-24T07:03:39;3.00;;;2.40;;
13415;SDS011;6779;50.150;8.680;2022-07-24T07:06:05;3.77;;;2.47;;
13415;SDS011;6779;50.150;8.680;2022-07-24T07:08:31;2.77;;;2.50;;
13415;SDS011;6779;50.150;8.680;2022-07-24T07:10:57;2.70;;;2.50;;
13415;SDS011;6779;50.150;8.680;2022-07-24T07:13:22;5.00;;;2.50;;
13415;SDS011;6779;50.150;8.680;2022-07-24T07:15:48;3.03;;;2.40;;
13415;SDS011;6779;50.150;8.680;2022-07-24T07:18:13;2.53;;;2.30;;
13415;SDS011;6779;50.150;8.680;2022-07-24T07:20:39;2.63;;;2.30;;
13415;SDS011;6779;50.150;8.680;2022-07-24T07:23:05;2.80;;;2.27;;
13415;SDS011;6779;50.150;8.680;2022-07-24T07:25:31;3.37;;;2.43;;
13415;SDS011;6779;50.150;8.680;2022-07-24T07:27:57;2.63;;;2.33;;
13415;SDS011;6779;50.150;8.680;2022-07-24T07:30:22;5.97;;;2.80;;
13415;SDS011;6779;50.150;8.680;2022-07-24T07:32:48;2.87;;;2.27;;
13415;SDS011;6779;50.150;8.680;2022-07-24T07:35:13;3.00;;;2.23;;
13415;SDS011;6779;50.150;8.680;2022-07-24T07:37:39;2.97;;;2.70;;
13415;SDS011;6779;50.150;8.680;2022-07-24T07:40:05;3.13;;;2.47;;
13415;SDS011;6779;50.150;8.680;2022-07-24T07:42:31;4.00;;;3.20;;
13415;SDS011;6779;50.150;8.680;2022-07-24T07:44:56;5.00;;;2.77;;
13415;SDS011;6779;50.150;8.680;2022-07-24T07:47:22;3.00;;;2.50;;
13415;SDS011;6779;50.150;8.680;2022-07-24T07:49:47;3.23;;;2.40;;
13415;SDS011;6779;50.150;8.680;2022-07-24T07:52:13;2.93;;;2.37;;
13415;SDS011;6779;50.150;8.680;2022-07-24T07:54:39;3.17;;;2.70;;
13415;SDS011;6779;50.150;8.680;2022-07-24T07:57:04;5.40;;;2.80;;
13415;SDS011;6779;50.150;8.680;2022-07-24T07:59:30;3.03;;;2.50;;
13415;SDS011;6779;50.150;8.680;2022-07-24T08:01:55;4.10;;;2.90;;
13415;SDS011;6779;50.150;8.680;2022-07-24T08:04:21;3.30;;;2.53;;
13415;SDS011;6779;50.150;8.680;2022-07-24T08:06:47;3.03;;;2.63;;
13415;SDS011;6779;50.150;8.680;2022-07-24T08:09:12;2.60;;;2.40;;
13415;SDS011;6779;50.150;8.680;2022-07-24T08:11:38;3.50;;;2.97;;
13415;SDS011;6779;50.150;8.680;2022-07-24T08:14:03;3.17;;;2.83;;
13415;SDS011;6779;50.150;8.680;2022-07-24T08:16:29;4.57;;;2.33;;
13415;SDS011;6779;50.150;8.680;2022-07-24T08:18:55;2.87;;;2.43;;
13415;SDS011;6779;50.150;8.680;2022-07-24T08:21:20;3.10;;;2.80;;
13415;SDS011;6779;50.150;8.680;2022-07-24T08:23:47;3.37;;;2.87;;
13415;SDS011;6779;50.150;8.680;2022-07-24T08:26:13;2.93;;;2.60;;
13415;SDS011;6779;50.150;8.680;2022-07-24T08:28:39;4.80;;;3.30;;
13415;SDS011;6779;50.150;8.680;2022-07-24T08:31:05;3.40;;;2.43;;
13415;SDS011;6779;50.150;8.680;2022-07-24T08:33:30;3.27;;;2.90;;
13415;SDS011;6779;50.150;8.680;2022-07-24T08:35:56;2.80;;;2.53;;
13415;SDS011;6779;50.150;8.680;2022-07-24T08:38:21;3.73;;;2.67;;
13415;SDS011;6779;50.150;8.680;2022-07-24T08:40:47;3.97;;;3.10;;
13415;SDS011;6779;50.150;8.680;2022-07-24T08:43:13;4.40;;;2.90;;
13415;SDS011;6779;50.150;8.680;2022-07-24T08:45:41;4.27;;;2.57;;
13415;SDS011;6779;50.150;8.680;2022-07-24T08:48:09;2.97;;;2.57;;
13415;SDS011;6779;50.150;8.680;2022-07-24T08:50:36;3.67;;;2.83;;
13415;SDS011;6779;50.150;8.680;2022-07-24T08:53:05;3.90;;;2.67;;
13415;SDS011;6779;50.150;8.680;2022-07-24T08:55:30;3.00;;;2.50;;
13415;SDS011;6779;50.150;8.680;2022-07-24T08:57:57;3.00;;;2.60;;
13415;SDS011;6779;50.150;8.680;2022-07-24T09:00:24;2.97;;;2.50;;
13415;SDS011;6779;50.150;8.680;2022-07-24T09:02:50;2.73;;;2.53;;
13415;SDS011;6779;50.150;8.680;2022-07-24T09:05:16;3.40;;;3.10;;
13415;SDS011;6779;50.150;8.680;2022-07-24T09:07:42;3.77;;;2.50;;
13415;SDS011;6779;50.150;8.680;2022-07-24T09:10:08;3.63;;;2.93;;
13415;SDS011;6779;50.150;8.680;2022-07-24T09:12:36;4.60;;;3.00;;
13415;SDS011;6779;50.150;8.680;2022-07-24T09:15:25;3.53;;;3.07;;
13415;SDS011;6779;50.150;8.680;2022-07-24T09:17:52;3.72;;;3.22;;
13415;SDS011;6779;50.150;8.680;2022-07-24T09:20:19;3.20;;;2.80;;
13415;SDS011;6779;50.150;8.680;2022-07-24T09:22:47;2.92;;;2.63;;
13415;SDS011;6779;50.150;8.680;2022-07-24T09:30:29;2.88;;;2.58;;
13415;SDS011;6779;50.150;8.680;2022-07-24T09:35:24;2.67;;;2.47;;
13415;SDS011;6779;50.150;8.680;2022-07-24T09:37:58;2.90;;;2.70;;
13415;SDS011;6779;50.150;8.680;2022-07-24T09:40:33;3.78;;;3.10;;
13415;SDS011;6779;50.150;8.680;2022-07-24T09:43:21;3.10;;;2.80;;
13415;SDS011;6779;50.150;8.680;2022-07-24T09:45:57;2.58;;;2.38;;
13415;SDS011;6779;50.150;8.680;2022-07-24T09:48:26;2.88;;;2.60;;
13415;SDS011;6779;50.150;8.680;2022-07-24T09:50:53;3.22;;;2.35;;
13415;SDS011;6779;50.150;8.680;2022-07-24T09:53:21;2.90;;;2.30;;
13415;SDS011;6779;50.150;8.680;2022-07-24T09:55:59;2.80;;;2.60;;
13415;SDS011;6779;50.150;8.680;2022-07-24T09:58:29;2.70;;;2.50;;
13415;SDS011;6779;50.150;8.680;2022-07-24T10:00:56;3.10;;;2.78;;
13415;SDS011;6779;50.150;8.680;2022-07-24T10:03:33;2.78;;;2.55;;
13415;SDS011;6779;50.150;8.680;2022-07-24T10:06:04;3.03;;;2.75;;
13415;SDS011;6779;50.150;8.680;2022-07-24T10:08:32;3.00;;;2.80;;
13415;SDS011;6779;50.150;8.680;2022-07-24T10:10:59;3.05;;;2.85;;
13415;SDS011;6779;50.150;8.680;2022-07-24T10:13:25;3.03;;;2.80;;
13415;SDS011;6779;50.150;8.680;2022-07-24T10:18:23;2.90;;;2.60;;
13415;SDS011;6779;50.150;8.680;2022-07-24T10:21:05;2.78;;;2.58;;
13415;SDS011;6779;50.150;8.680;2022-07-24T10:23:34;2.75;;;2.55;;
13415;SDS011;6779;50.150;8.680;2022-07-24T10:26:30;2.70;;;2.50;;
13415;SDS011;6779;50.150;8.680;2022-07-24T10:29:07;3.10;;;2.80;;
13415;SDS011;6779;50.150;8.680;2022-07-24T10:31:39;3.25;;;3.00;;
13415;SDS011;6779;50.150;8.680;2022-07-24T10:34:50;2.95;;;2.65;;
13415;SDS011;6779;50.150;8.680;2022-07-24T10:39:58;3.55;;;3.25;;
13415;SDS011;6779;50.150;8.680;2022-07-24T10:42:27;3.40;;;3.10;;
13415;SDS011;6779;50.150;8.680;2022-07-24T10:47:39;3.47;;;3.17;;
13415;SDS011;6779;50.150;8.680;2022-07-24T10:50:04;3.78;;;3.47;;
13415;SDS011;6779;50.150;8.680;2022-07-24T10:52:31;3.50;;;3.22;;
13415;SDS011;6779;50.150;8.680;2022-07-24T11:03:02;3.53;;;3.30;;
13415;SDS011;6779;50.150;8.680;2022-07-24T11:05:33;4.18;;;3.80;;
13415;SDS011;6779;50.150;8.680;2022-07-24T11:10:48;4.03;;;3.70;;
13415;SDS011;6779;50.150;8.680;2022-07-24T11:21:28;3.72;;;3.42;;
13415;SDS011;6779;50.150;8.680;2022-07-24T11:26:57;3.75;;;3.45;;
13415;SDS011;6779;50.150;8.680;2022-07-24T11:31:55;3.85;;;3.60;;
13415;SDS011;6779;50.150;8.680;2022-07-24T11:34:23;4.78;;;3.47;;
13415;SDS011;6779;50.150;8.680;2022-07-24T11:36:50;4.13;;;3.83;;
13415;SDS011;6779;50.150;8.680;2022-07-24T11:39:18;3.65;;;3.10;;
13415;SDS011;6779;50.150;8.680;2022-07-24T11:41:49;3.67;;;3.38;;
13415;SDS011;6779;50.150;8.680;2022-07-24T11:44:26;3.78;;;3.47;;
13415;SDS011;6779;50.150;8.680;2022-07-24T11:46:53;3.95;;;3.65;;
13415;SDS011;6779;50.150;8.680;2022-07-24T11:49:21;4.78;;;4.10;;
13415;SDS011;6779;50.150;8.680;2022-07-24T11:51:48;4.20;;;3.80;;
13415;SDS011;6779;50.150;8.680;2022-07-24T11:54:23;4.95;;;3.97;;
13415;SDS011;6779;50.150;8.680;2022-07-24T11:56:50;3.90;;;3.58;;
13415;SDS011;6779;50.150;8.680;2022-07-24T11:59:21;5.57;;;4.57;;
13415;SDS011;6779;50.150;8.680;2022-07-24T12:01:55;4.43;;;3.70;;
13415;SDS011;6779;50.150;8.680;2022-07-24T12:04:28;4.50;;;3.70;;
13415;SDS011;6779;50.150;8.680;2022-07-24T12:06:54;5.43;;;3.75;;
13415;SDS011;6779;50.150;8.680;2022-07-24T12:09:20;3.67;;;3.33;;
13415;SDS011;6779;50.150;8.680;2022-07-24T12:11:45;5.63;;;4.47;;
13415;SDS011;6779;50.150;8.680;2022-07-24T12:14:12;4.95;;;4.18;;
13415;SDS011;6779;50.150;8.680;2022-07-24T12:16:40;4.80;;;3.92;;
13415;SDS011;6779;50.150;8.680;2022-07-24T12:19:16;5.25;;;3.83;;
13415;SDS011;6779;50.150;8.680;2022-07-24T12:21:43;4.05;;;3.65;;
13415;SDS011;6779;50.150;8.680;2022-07-24T12:24:10;4.30;;;3.75;;
13415;SDS011;6779;50.150;8.680;2022-07-24T12:26:49;4.82;;;4.28;;
13415;SDS011;6779;50.150;8.680;2022-07-24T12:29:15;4.55;;;4.15;;
13415;SDS011;6779;50.150;8.680;2022-07-24T12:31:41;4.07;;;3.67;;
13415;SDS011;6779;50.150;8.680;2022-07-24T12:34:07;4.45;;;3.92;;
13415;SDS011;6779;50.150;8.680;2022-07-24T12:36:32;4.85;;;3.70;;
13415;SDS011;6779;50.150;8.680;2022-07-24T12:38:58;4.15;;;3.75;;
13415;SDS011;6779;50.150;8.680;2022-07-24T12:41:25;6.03;;;4.10;;
13415;SDS011;6779;50.150;8.680;2022-07-24T12:48:56;4.45;;;4.05;;
13415;SDS011;6779;50.150;8.680;2022-07-24T12:51:22;4.60;;;4.20;;
13415;SDS011;6779;50.150;8.680;2022-07-24T12:53:51;4.97;;;3.97;;
13415;SDS011;6779;50.150;8.680;2022-07-24T12:56:19;5.57;;;4.57;;
13415;SDS011;6779;50.150;8.680;2022-07-24T12:58:51;4.97;;;4.22;;
13415;SDS011;6779;50.150;8.680;2022-07-24T13:01:29;4.55;;;3.92;;
13415;SDS011;6779;50.150;8.680;2022-07-24T13:04:12;4.38;;;3.97;;
13415;SDS011;6779;50.150;8.680;2022-07-24T13:06:44;4.85;;;4.32;;
13415;SDS011;6779;50.150;8.680;2022-07-24T13:09:14;4.85;;;3.97;;
13415;SDS011;6779;50.150;8.680;2022-07-24T13:11:41;5.68;;;4.20;;
13415;SDS011;6779;50.150;8.680;2022-07-24T13:14:08;4.18;;;3.83;;
13415;SDS011;6779;50.150;8.680;2022-07-24T13:16:36;4.90;;;4.30;;
13415;SDS011;6779;50.150;8.680;2022-07-24T13:19:03;5.25;;;4.75;;
13415;SDS011;6779;50.150;8.680;2022-07-24T13:21:30;4.50;;;3.92;;
13415;SDS011;6779;50.150;8.680;2022-07-24T13:23:55;4.65;;;4.25;;
13415;SDS011;6779;50.150;8.680;2022-07-24T13:26:22;5.40;;;4.70;;
13415;SDS011;6779;50.150;8.680;2022-07-24T13:28:48;4.70;;;3.65;;
13415;SDS011;6779;50.150;8.680;2022-07-24T13:31:15;4.40;;;4.00;;
13415;SDS011;6779;50.150;8.680;2022-07-24T13:33:41;4.75;;;4.25;;
13415;SDS011;6779;50.150;8.680;2022-07-24T13:36:07;5.05;;;3.92;;
13415;SDS011;6779;50.150;8.680;2022-07-24T13:38:32;6.18;;;4.35;;
13415;SDS011;6779;50.150;8.680;2022-07-24T13:40:58;4.60;;;3.92;;
13415;SDS011;6779;50.150;8.680;2022-07-24T13:43:24;5.00;;;4.50;;
13415;SDS011;6779;50.150;8.680;2022-07-24T13:45:50;5.35;;;4.38;;
13415;SDS011;6779;50.150;8.680;2022-07-24T13:48:16;4.45;;;3.55;;
13415;SDS011;6779;50.150;8.680;2022-07-24T13:50:42;4.50;;;3.90;;
13415;SDS011;6779;50.150;8.680;2022-07-24T13:53:07;6.00;;;4.20;;
13415;SDS011;6779;50.150;8.680;2022-07-24T13:55:33;4.97;;;4.05;;
13415;SDS011;6779;50.150;8.680;2022-07-24T13:57:59;4.78;;;3.65;;
13415;SDS011;6779;50.150;8.680;2022-07-24T14:00:24;4.72;;;4.13;;
13415;SDS011;6779;50.150;8.680;2022-07-24T14:02:50;4.68;;;4.10;;
13415;SDS011;6779;50.150;8.680;2022-07-24T14:05:21;5.50;;;4.05;;
13415;SDS011;6779;50.150;8.680;2022-07-24T14:07:51;4.22;;;3.83;;
13415;SDS011;6779;50.150;8.680;2022-07-24T14:10:18;4.03;;;3.72;;
13415;SDS011;6779;50.150;8.680;2022-07-24T14:12:44;4.32;;;3.92;;
13415;SDS011;6779;50.150;8.680;2022-07-24T14:15:09;5.20;;;4.22;;
13415;SDS011;6779;50.150;8.680;2022-07-24T14:17:37;4.22;;;3.78;;
13415;SDS011;6779;50.150;8.680;2022-07-24T14:20:03;4.18;;;3.65;;
13415;SDS011;6779;50.150;8.680;2022-07-24T14:22:30;4.85;;;3.92;;
13415;SDS011;6779;50.150;8.680;2022-07-24T14:24:55;4.13;;;3.72;;
13415;SDS011;6779;50.150;8.680;2022-07-24T14:27:21;4.47;;;4.07;;
13415;SDS011;6779;50.150;8.680;2022-07-24T14:29:46;4.35;;;3.65;;
13415;SDS011;6779;50.150;8.680;2022-07-24T14:32:12;6.00;;;3.63;;
13415;SDS011;6779;50.150;8.680;2022-07-24T14:34:38;3.90;;;3.55;;
13415;SDS011;6779;50.150;8.680;2022-07-24T14:37:03;5.78;;;3.63;;
13415;SDS011;6779;50.150;8.680;2022-07-24T14:39:29;5.57;;;3.60;;
13415;SDS011;6779;50.150;8.680;2022-07-24T14:41:55;4.70;;;4.22;;
13415;SDS011;6779;50.150;8.680;2022-07-24T14:44:21;3.60;;;3.25;;
13415;SDS011;6779;50.150;8.680;2022-07-24T14:46:47;5.00;;;3.80;;
13415;SDS011;6779;50.150;8.680;2022-07-24T14:49:13;4.75;;;4.03;;
13415;SDS011;6779;50.150;8.680;2022-07-24T14:51:39;4.32;;;3.78;;
13415;SDS011;6779;50.150;8.680;2022-07-24T14:54:05;4.68;;;3.67;;
13415;SDS011;6779;50.150;8.680;2022-07-24T14:56:31;4.72;;;3.42;;
13415;SDS011;6779;50.150;8.680;2022-07-24T14:58:57;4.50;;;3.95;;
13415;SDS011;6779;50.150;8.680;2022-07-24T15:01:22;4.38;;;3.42;;
13415;SDS011;6779;50.150;8.680;2022-07-24T15:03:48;4.18;;;3.75;;
13415;SDS011;6779;50.150;8.680;2022-07-24T15:06:14;3.80;;;3.40;;
13415;SDS011;6779;50.150;8.680;2022-07-24T15:08:40;3.92;;;3.53;;
13415;SDS011;6779;50.150;8.680;2022-07-24T15:11:06;4.18;;;3.78;;
13415;SDS011;6779;50.150;8.680;2022-07-24T15:13:31;3.85;;;3.45;;
13415;SDS011;6779;50.150;8.680;2022-07-24T15:15:57;4.63;;;4.22;;
13415;SDS011;6779;50.150;8.680;2022-07-24T15:18:23;4.80;;;4.05;;
13415;SDS011;6779;50.150;8.680;2022-07-24T15:20:48;5.93;;;3.97;;
13415;SDS011;6779;50.150;8.680;2022-07-24T15:23:14;3.97;;;3.67;;
13415;SDS011;6779;50.150;8.680;2022-07-24T15:25:39;5.15;;;4.47;;
13415;SDS011;6779;50.150;8.680;2022-07-24T15:28:05;4.90;;;3.83;;
13415;SDS011;6779;50.150;8.680;2022-07-24T15:30:30;5.00;;;3.90;;
13415;SDS011;6779;50.150;8.680;2022-07-24T15:32:56;5.72;;;3.90;;
13415;SDS011;6779;50.150;8.680;2022-07-24T15:35:22;4.45;;;4.05;;
13415;SDS011;6779;50.150;8.680;2022-07-24T15:37:47;4.63;;;3.80;;
13415;SDS011;6779;50.150;8.680;2022-07-24T15:40:13;4.35;;;3.78;;
13415;SDS011;6779;50.150;8.680;2022-07-24T15:42:39;4.72;;;3.50;;